createdAt,value
2017-07-18T00:00:26.172Z,1016.88
2017-07-18T00:01:36.390Z,1016.9
2017-07-18T00:02:46.663Z,1016.93
2017-07-18T00:03:56.647Z,1016.94
2017-07-18T00:05:06.941Z,1016.95
2017-07-18T00:06:17.220Z,1016.94
2017-07-18T00:07:27.748Z,1016.93
2017-07-18T00:08:37.409Z,1016.92
2017-07-18T00:09:47.401Z,1016.92
2017-07-18T00:10:57.683Z,1016.9
2017-07-18T00:12:07.976Z,1016.86
2017-07-18T00:13:18.203Z,1016.93
2017-07-18T00:14:28.497Z,1016.92
2017-07-18T00:15:38.780Z,1016.88
2017-07-18T00:16:48.442Z,1016.89
2017-07-18T00:17:58.727Z,1016.87
2017-07-18T00:19:09.270Z,1016.85
2017-07-18T00:20:19.569Z,1016.88
2017-07-18T00:21:29.854Z,1016.87
2017-07-18T00:22:39.814Z,1016.92
2017-07-18T00:23:49.785Z,1016.91
2017-07-18T00:25:00.314Z,1016.93
2017-07-18T00:26:10.609Z,1016.93
2017-07-18T00:27:20.886Z,1016.96
2017-07-18T00:28:30.854Z,1016.95
2017-07-18T00:29:41.147Z,1016.93
2017-07-18T00:30:51.674Z,1017
2017-07-18T00:32:01.953Z,1016.96
2017-07-18T00:33:12.263Z,1016.95
2017-07-18T00:34:22.532Z,1016.95
2017-07-18T00:35:32.806Z,1016.95
2017-07-18T00:36:43.046Z,1016.95
2017-07-18T00:37:53.336Z,1016.99
2017-07-18T00:39:03.630Z,1016.97
2017-07-18T00:40:13.590Z,1017.01
2017-07-18T00:41:23.871Z,1016.97
2017-07-18T00:42:34.097Z,1016.96
2017-07-18T00:43:44.081Z,1016.95
2017-07-18T00:44:54.370Z,1016.92
2017-07-18T00:46:04.659Z,1016.93
2017-07-18T00:47:14.629Z,1016.89
2017-07-18T00:48:25.147Z,1016.93
2017-07-18T00:49:35.135Z,1016.91
2017-07-18T00:50:45.412Z,1016.92
2017-07-18T00:51:55.681Z,1016.91
2017-07-18T00:53:05.653Z,1016.91
2017-07-18T00:54:16.187Z,1016.93
2017-07-18T00:55:26.476Z,1016.93
2017-07-18T00:56:36.767Z,1016.95
2017-07-18T00:57:46.750Z,1016.94
2017-07-18T00:58:57.065Z,1016.91
2017-07-18T01:00:07.351Z,1016.87
2017-07-18T01:01:17.650Z,1016.89
2017-07-18T01:02:27.944Z,1016.86
2017-07-18T01:03:38.257Z,1016.82
2017-07-18T01:04:48.546Z,1016.85
2017-07-18T01:05:58.762Z,1016.85
2017-07-18T01:07:08.724Z,1016.86
2017-07-18T01:08:18.701Z,1016.84
2017-07-18T01:09:28.691Z,1016.81
2017-07-18T01:10:38.671Z,1016.86
2017-07-18T01:11:49.232Z,1016.85
2017-07-18T01:12:59.204Z,1016.85
2017-07-18T01:14:09.510Z,1016.89
2017-07-18T01:15:20.116Z,1016.88
2017-07-18T01:16:29.764Z,1016.89
2017-07-18T01:17:40.321Z,1016.89
2017-07-18T01:18:50.612Z,1016.91
2017-07-18T01:20:00.890Z,1016.91
2017-07-18T01:21:10.554Z,1016.89
2017-07-18T01:22:20.526Z,1016.88
2017-07-18T01:23:31.098Z,1016.88
2017-07-18T01:24:41.389Z,1016.89
2017-07-18T01:25:51.692Z,1016.86
2017-07-18T01:27:01.974Z,1016.85
2017-07-18T01:28:11.638Z,1016.86
2017-07-18T01:29:22.189Z,1016.88
2017-07-18T01:30:32.463Z,1016.87
2017-07-18T01:31:42.442Z,1016.9
2017-07-18T01:32:52.412Z,1016.88
2017-07-18T01:34:02.710Z,1016.88
2017-07-18T01:35:13.249Z,1016.88
2017-07-18T01:36:23.210Z,1016.88
2017-07-18T01:37:33.175Z,1016.88
2017-07-18T01:38:42.832Z,1016.87
2017-07-18T01:39:52.827Z,1016.86
2017-07-18T01:41:03.051Z,1016.89
2017-07-18T01:42:13.032Z,1016.86
2017-07-18T01:43:23.334Z,1016.86
2017-07-18T01:44:33.300Z,1016.89
2017-07-18T01:45:43.278Z,1016.89
2017-07-18T01:46:53.502Z,1016.91
2017-07-18T01:48:03.779Z,1016.91
2017-07-18T01:49:14.057Z,1016.92
2017-07-18T01:50:24.340Z,1016.94
2017-07-18T01:51:34.664Z,1016.95
2017-07-18T01:52:44.900Z,1016.95
2017-07-18T01:53:55.185Z,1016.93
2017-07-18T01:55:05.153Z,1016.92
2017-07-18T01:56:15.111Z,1016.95
2017-07-18T01:57:25.397Z,1016.94
2017-07-18T01:58:35.929Z,1016.95
2017-07-18T01:59:45.894Z,1016.94
2017-07-18T02:00:56.185Z,1016.95
2017-07-18T02:02:06.463Z,1016.94
2017-07-18T02:03:16.772Z,1016.94
2017-07-18T02:04:26.988Z,1016.94
2017-07-18T02:05:37.281Z,1016.96
2017-07-18T02:06:47.264Z,1016.93
2017-07-18T02:07:57.551Z,1016.97
2017-07-18T02:09:07.522Z,1016.93
2017-07-18T02:10:17.746Z,1016.95
2017-07-18T02:11:28.034Z,1016.95
2017-07-18T02:12:38.305Z,1016.92
2017-07-18T02:13:48.288Z,1016.92
2017-07-18T02:14:58.577Z,1016.96
2017-07-18T02:16:09.105Z,1016.94
2017-07-18T02:17:19.112Z,1016.93
2017-07-18T02:18:29.380Z,1016.92
2017-07-18T02:19:39.382Z,1016.96
2017-07-18T02:20:49.649Z,1016.98
2017-07-18T02:21:59.557Z,1016.98
2017-07-18T02:23:09.861Z,1016.99
2017-07-18T02:24:20.136Z,1016.97
2017-07-18T02:25:30.421Z,1016.95
2017-07-18T02:26:40.373Z,1016.97
2017-07-18T02:27:50.967Z,1016.92
2017-07-18T02:29:00.935Z,1016.94
2017-07-18T02:30:11.227Z,1016.94
2017-07-18T02:31:21.221Z,1016.93
2017-07-18T02:32:31.194Z,1016.93
2017-07-18T02:33:41.736Z,1016.96
2017-07-18T02:34:52.019Z,1016.93
2017-07-18T02:36:02.324Z,1016.93
2017-07-18T02:37:12.044Z,1016.95
2017-07-18T02:38:22.319Z,1016.93
2017-07-18T02:39:32.864Z,1016.94
2017-07-18T02:40:42.522Z,1016.93
2017-07-18T02:41:52.855Z,1016.94
2017-07-18T02:43:03.177Z,1016.89
2017-07-18T02:44:13.462Z,1016.94
2017-07-18T02:45:23.683Z,1016.91
2017-07-18T02:46:33.985Z,1016.87
2017-07-18T02:47:44.024Z,1016.92
2017-07-18T02:48:53.996Z,1016.93
2017-07-18T02:50:03.966Z,1016.92
2017-07-18T02:51:13.891Z,1016.94
2017-07-18T02:52:24.269Z,1016.93
2017-07-18T02:53:34.557Z,1016.98
2017-07-18T02:54:44.215Z,1016.98
2017-07-18T02:55:54.525Z,1016.98
2017-07-18T02:57:04.760Z,1016.99
2017-07-18T02:58:14.442Z,1016.99
2017-07-18T02:59:25.179Z,1016.98
2017-07-18T03:00:35.472Z,1016.96
2017-07-18T03:01:45.762Z,1016.99
2017-07-18T03:02:56.289Z,1016.98
2017-07-18T03:04:06.593Z,1016.95
2017-07-18T03:05:16.872Z,1016.99
2017-07-18T03:06:26.840Z,1016.98
2017-07-18T03:07:36.824Z,1017
2017-07-18T03:08:47.363Z,1016.98
2017-07-18T03:09:57.650Z,1017.04
2017-07-18T03:11:07.637Z,1017.05
2017-07-18T03:12:17.918Z,1017.07
2017-07-18T03:13:28.208Z,1017.08
2017-07-18T03:14:38.743Z,1017.07
2017-07-18T03:15:49.034Z,1017.07
2017-07-18T03:16:59.307Z,1017.05
2017-07-18T03:18:09.596Z,1017.04
2017-07-18T03:19:19.867Z,1017.06
2017-07-18T03:20:30.067Z,1017.07
2017-07-18T03:21:40.056Z,1017.1
2017-07-18T03:22:50.029Z,1017.11
2017-07-18T03:24:00.000Z,1017.11
2017-07-18T03:25:10.002Z,1017.13
2017-07-18T03:26:20.220Z,1017.15
2017-07-18T03:27:30.502Z,1017.12
2017-07-18T03:28:40.480Z,1017.17
2017-07-18T03:29:50.468Z,1017.16
2017-07-18T03:31:00.451Z,1017.14
2017-07-18T03:32:10.734Z,1017.16
2017-07-18T03:33:21.022Z,1017.17
2017-07-18T03:34:31.005Z,1017.18
2017-07-18T03:35:40.987Z,1017.24
2017-07-18T03:36:51.262Z,1017.2
2017-07-18T03:38:01.190Z,1017.23
2017-07-18T03:39:11.502Z,1017.23
2017-07-18T03:40:21.151Z,1017.26
2017-07-18T03:41:31.433Z,1017.23
2017-07-18T03:42:41.405Z,1017.29
2017-07-18T03:43:51.940Z,1017.29
2017-07-18T03:45:02.219Z,1017.29
2017-07-18T03:46:12.507Z,1017.32
2017-07-18T03:47:22.808Z,1017.31
2017-07-18T03:48:32.776Z,1017.3
2017-07-18T03:49:43.311Z,1017.33
2017-07-18T03:50:53.607Z,1017.33
2017-07-18T03:52:03.911Z,1017.32
2017-07-18T03:53:14.201Z,1017.3
2017-07-18T03:54:24.162Z,1017.35
2017-07-18T03:55:34.407Z,1017.37
2017-07-18T03:56:44.376Z,1017.32
2017-07-18T03:57:54.669Z,1017.34
2017-07-18T03:59:04.976Z,1017.4
2017-07-18T04:00:15.268Z,1017.38
2017-07-18T04:01:25.190Z,1017.35
2017-07-18T04:02:35.470Z,1017.36
2017-07-18T04:03:45.461Z,1017.39
2017-07-18T04:04:55.746Z,1017.36
2017-07-18T04:06:06.026Z,1017.34
2017-07-18T04:07:16.271Z,1017.37
2017-07-18T04:08:26.253Z,1017.38
2017-07-18T04:09:36.256Z,1017.36
2017-07-18T04:10:46.576Z,1017.33
2017-07-18T04:11:56.868Z,1017.34
2017-07-18T04:13:07.397Z,1017.38
2017-07-18T04:14:17.693Z,1017.4
2017-07-18T04:15:28.003Z,1017.4
2017-07-18T04:16:38.294Z,1017.43
2017-07-18T04:17:48.599Z,1017.41
2017-07-18T04:18:58.816Z,1017.38
2017-07-18T04:20:09.122Z,1017.4
2017-07-18T04:21:19.430Z,1017.4
2017-07-18T04:22:29.397Z,1017.38
2017-07-18T04:23:39.397Z,1017.4
2017-07-18T04:24:49.926Z,1017.37
2017-07-18T04:25:59.907Z,1017.42
2017-07-18T04:27:09.893Z,1017.4
2017-07-18T04:28:20.183Z,1017.37
2017-07-18T04:29:30.478Z,1017.4
2017-07-18T04:30:40.702Z,1017.4
2017-07-18T04:31:50.994Z,1017.4
2017-07-18T04:33:01.284Z,1017.41
2017-07-18T04:34:10.964Z,1017.44
2017-07-18T04:35:21.261Z,1017.44
2017-07-18T04:36:31.785Z,1017.44
2017-07-18T04:37:42.073Z,1017.45
2017-07-18T04:38:52.042Z,1017.52
2017-07-18T04:40:02.330Z,1017.5
2017-07-18T04:41:12.613Z,1017.49
2017-07-18T04:42:22.835Z,1017.5
2017-07-18T04:43:32.817Z,1017.49
2017-07-18T04:44:42.810Z,1017.46
2017-07-18T04:45:53.086Z,1017.49
2017-07-18T04:47:03.361Z,1017.51
2017-07-18T04:48:13.891Z,1017.48
2017-07-18T04:49:24.182Z,1017.51
2017-07-18T04:50:34.465Z,1017.47
2017-07-18T04:51:44.750Z,1017.51
2017-07-18T04:52:54.724Z,1017.46
2017-07-18T04:54:05.275Z,1017.51
2017-07-18T04:55:14.956Z,1017.51
2017-07-18T04:56:25.234Z,1017.53
2017-07-18T04:57:35.208Z,1017.53
2017-07-18T04:58:45.182Z,1017.52
2017-07-18T04:59:55.403Z,1017.51
2017-07-18T05:01:05.702Z,1017.53
2017-07-18T05:02:15.987Z,1017.5
2017-07-18T05:03:26.286Z,1017.5
2017-07-18T05:04:36.264Z,1017.5
2017-07-18T05:05:46.813Z,1017.51
2017-07-18T05:06:57.117Z,1017.48
2017-07-18T05:08:07.106Z,1017.5
2017-07-18T05:09:17.082Z,1017.51
2017-07-18T05:10:27.364Z,1017.54
2017-07-18T05:11:37.910Z,1017.5
2017-07-18T05:12:47.563Z,1017.51
2017-07-18T05:13:57.583Z,1017.53
2017-07-18T05:15:06.938Z,1017.55
2017-07-18T05:16:17.223Z,1017.57
2017-07-18T05:17:27.774Z,1017.56
2017-07-18T05:18:37.430Z,1017.57
2017-07-18T05:19:47.411Z,1017.58
2017-07-18T05:20:57.696Z,1017.61
2017-07-18T05:22:07.970Z,1017.58
2017-07-18T05:23:18.549Z,1017.59
2017-07-18T05:24:28.533Z,1017.56
2017-07-18T05:25:38.517Z,1017.63
2017-07-18T05:26:48.809Z,1017.63
2017-07-18T05:27:59.119Z,1017.62
2017-07-18T05:29:09.663Z,1017.61
2017-07-18T05:30:19.945Z,1017.6
2017-07-18T05:31:29.927Z,1017.63
2017-07-18T05:32:40.219Z,1017.63
2017-07-18T05:33:50.511Z,1017.66
2017-07-18T05:35:01.049Z,1017.64
2017-07-18T05:36:11.400Z,1017.62
2017-07-18T05:37:21.688Z,1017.65
2017-07-18T05:38:31.655Z,1017.62
2017-07-18T05:39:41.929Z,1017.57
2017-07-18T05:40:52.469Z,1017.61
2017-07-18T05:42:02.763Z,1017.6
2017-07-18T05:43:13.076Z,1017.58
2017-07-18T05:44:23.365Z,1017.59
2017-07-18T05:45:33.041Z,1017.56
2017-07-18T05:46:43.262Z,1017.62
2017-07-18T05:47:53.554Z,1017.59
2017-07-18T05:49:03.851Z,1017.59
2017-07-18T05:50:13.825Z,1017.58
2017-07-18T05:51:23.804Z,1017.57
2017-07-18T05:52:34.575Z,1017.57
2017-07-18T05:53:44.871Z,1017.58
2017-07-18T05:54:55.164Z,1017.6
2017-07-18T05:56:05.161Z,1017.58
2017-07-18T05:57:15.449Z,1017.6
2017-07-18T05:58:25.980Z,1017.59
2017-07-18T05:59:36.274Z,1017.63
2017-07-18T06:00:46.569Z,1017.66
2017-07-18T06:01:56.570Z,1017.63
2017-07-18T06:03:06.581Z,1017.62
2017-07-18T06:04:16.856Z,1017.64
2017-07-18T06:05:27.163Z,1017.61
2017-07-18T06:06:36.823Z,1017.64
2017-07-18T06:07:46.502Z,1017.63
2017-07-18T06:08:56.520Z,1017.66
2017-07-18T06:10:07.101Z,1017.65
2017-07-18T06:11:17.414Z,1017.67
2017-07-18T06:12:27.441Z,1017.73
2017-07-18T06:13:37.476Z,1017.74
2017-07-18T06:14:47.732Z,1017.74
2017-07-18T06:15:58.329Z,1017.69
2017-07-18T06:17:08.700Z,1017.7
2017-07-18T06:18:18.701Z,1017.71
2017-07-18T06:19:29.006Z,1017.68
2017-07-18T06:20:39.284Z,1017.65
2017-07-18T06:21:49.523Z,1017.65
2017-07-18T06:22:59.811Z,1017.67
2017-07-18T06:24:09.490Z,1017.71
2017-07-18T06:25:19.795Z,1017.7
2017-07-18T06:26:29.775Z,1017.73
2017-07-18T06:27:40.323Z,1017.68
2017-07-18T06:28:50.624Z,1017.7
2017-07-18T06:30:00.978Z,1017.68
2017-07-18T06:31:11.268Z,1017.72
2017-07-18T06:32:21.246Z,1017.74
2017-07-18T06:33:31.185Z,1017.71
2017-07-18T06:34:41.480Z,1017.71
2017-07-18T06:35:51.791Z,1017.68
2017-07-18T06:37:01.771Z,1017.69
2017-07-18T06:38:11.799Z,1017.7
2017-07-18T06:39:22.360Z,1017.67
2017-07-18T06:40:32.356Z,1017.65
2017-07-18T06:41:42.357Z,1017.67
2017-07-18T06:42:52.661Z,1017.69
2017-07-18T06:44:02.954Z,1017.69
2017-07-18T06:45:13.576Z,1017.68
2017-07-18T06:46:23.866Z,1017.63
2017-07-18T06:47:34.206Z,1017.64
2017-07-18T06:48:44.499Z,1017.64
2017-07-18T06:49:54.502Z,1017.7
2017-07-18T06:51:05.316Z,1017.65
2017-07-18T06:52:15.645Z,1017.63
2017-07-18T06:53:25.983Z,1017.62
2017-07-18T06:54:35.994Z,1017.63
2017-07-18T06:55:46.312Z,1017.63
2017-07-18T06:56:56.228Z,1017.59
2017-07-18T06:58:06.554Z,1017.61
2017-07-18T06:59:16.242Z,1017.63
2017-07-18T07:00:26.529Z,1017.65
2017-07-18T07:01:36.852Z,1017.65
2017-07-18T07:02:47.426Z,1017.7
2017-07-18T07:03:57.417Z,1017.64
2017-07-18T07:05:07.391Z,1017.67
2017-07-18T07:06:17.752Z,1017.62
2017-07-18T07:07:28.072Z,1017.61
2017-07-18T07:08:38.636Z,1017.62
2017-07-18T07:09:48.977Z,1017.62
2017-07-18T07:10:59.276Z,1017.61
2017-07-18T07:12:09.285Z,1017.63
2017-07-18T07:13:19.301Z,1017.65
2017-07-18T07:14:29.530Z,1017.67
2017-07-18T07:15:39.849Z,1017.65
2017-07-18T07:16:50.168Z,1017.69
2017-07-18T07:18:00.472Z,1017.66
2017-07-18T07:19:10.773Z,1017.65
2017-07-18T07:20:21.021Z,1017.63
2017-07-18T07:21:31.355Z,1017.66
2017-07-18T07:22:41.668Z,1017.66
2017-07-18T07:23:52.013Z,1017.63
2017-07-18T07:25:01.993Z,1017.61
2017-07-18T07:26:12.548Z,1017.64
2017-07-18T07:27:22.862Z,1017.63
2017-07-18T07:28:32.534Z,1017.68
2017-07-18T07:29:42.872Z,1017.66
2017-07-18T07:30:52.856Z,1017.66
2017-07-18T07:32:03.388Z,1017.64
2017-07-18T07:33:13.075Z,1017.62
2017-07-18T07:34:23.354Z,1017.62
2017-07-18T07:35:33.364Z,1017.65
2017-07-18T07:36:43.636Z,1017.63
2017-07-18T07:37:54.182Z,1017.64
2017-07-18T07:39:04.503Z,1017.65
2017-07-18T07:40:14.804Z,1017.63
2017-07-18T07:41:25.152Z,1017.61
2017-07-18T07:42:35.434Z,1017.57
2017-07-18T07:43:45.972Z,1017.58
2017-07-18T07:44:56.265Z,1017.58
2017-07-18T07:46:06.234Z,1017.59
2017-07-18T07:47:16.209Z,1017.56
2017-07-18T07:48:26.195Z,1017.58
2017-07-18T07:49:36.741Z,1017.55
2017-07-18T07:50:47.030Z,1017.54
2017-07-18T07:51:57.331Z,1017.52
2017-07-18T07:53:07.641Z,1017.54
2017-07-18T07:54:17.616Z,1017.54
2017-07-18T07:55:28.151Z,1017.52
2017-07-18T07:56:38.139Z,1017.56
2017-07-18T07:57:48.431Z,1017.61
2017-07-18T07:58:58.826Z,1017.6
2017-07-18T08:00:08.809Z,1017.62
2017-07-18T08:01:19.363Z,1017.6
2017-07-18T08:02:29.667Z,1017.59
2017-07-18T08:03:39.637Z,1017.58
2017-07-18T08:04:49.616Z,1017.6
2017-07-18T08:05:59.919Z,1017.53
2017-07-18T08:07:10.454Z,1017.55
2017-07-18T08:08:20.451Z,1017.51
2017-07-18T08:09:30.786Z,1017.55
2017-07-18T08:10:41.090Z,1017.56
2017-07-18T08:11:51.384Z,1017.55
2017-07-18T08:13:01.942Z,1017.52
2017-07-18T08:14:11.922Z,1017.51
2017-07-18T08:15:21.921Z,1017.53
2017-07-18T08:16:32.244Z,1017.56
2017-07-18T08:17:42.551Z,1017.53
2017-07-18T08:18:52.779Z,1017.54
2017-07-18T08:20:03.068Z,1017.53
2017-07-18T08:21:13.056Z,1017.55
2017-07-18T08:22:23.346Z,1017.53
2017-07-18T08:23:33.323Z,1017.53
2017-07-18T08:24:43.925Z,1017.58
2017-07-18T08:25:53.908Z,1017.55
2017-07-18T08:27:04.180Z,1017.54
2017-07-18T08:28:14.174Z,1017.54
2017-07-18T08:29:24.509Z,1017.53
2017-07-18T08:30:34.745Z,1017.56
2017-07-18T08:31:45.059Z,1017.57
2017-07-18T08:32:55.395Z,1017.53
2017-07-18T08:34:05.695Z,1017.52
2017-07-18T08:35:15.984Z,1017.48
2017-07-18T08:36:26.218Z,1017.51
2017-07-18T08:37:36.491Z,1017.51
2017-07-18T08:38:46.480Z,1017.53
2017-07-18T08:39:56.776Z,1017.52
2017-07-18T08:41:07.047Z,1017.48
2017-07-18T08:42:17.586Z,1017.48
2017-07-18T08:43:27.926Z,1017.53
2017-07-18T08:44:38.213Z,1017.48
2017-07-18T08:45:48.510Z,1017.54
2017-07-18T08:46:58.492Z,1017.54
2017-07-18T08:48:09.063Z,1017.58
2017-07-18T08:49:18.739Z,1017.55
2017-07-18T08:50:28.740Z,1017.54
2017-07-18T08:51:38.732Z,1017.56
2017-07-18T08:52:48.437Z,1017.54
2017-07-18T08:53:59.133Z,1017.61
2017-07-18T08:55:08.814Z,1017.54
2017-07-18T08:56:19.126Z,1017.6
2017-07-18T08:57:29.448Z,1017.61
2017-07-18T08:58:39.753Z,1017.62
2017-07-18T08:59:50.021Z,1017.64
2017-07-18T09:01:00.326Z,1017.59
2017-07-18T09:02:10.636Z,1017.59
2017-07-18T09:03:20.955Z,1017.58
2017-07-18T09:04:30.629Z,1017.58
2017-07-18T09:05:41.192Z,1017.49
2017-07-18T09:06:51.490Z,1017.52
2017-07-18T09:08:01.461Z,1017.5
2017-07-18T09:09:11.475Z,1017.5
2017-07-18T09:10:21.799Z,1017.44
2017-07-18T09:11:32.357Z,1017.43
2017-07-18T09:12:42.656Z,1017.47
2017-07-18T09:13:52.345Z,1017.4
2017-07-18T09:15:02.609Z,1017.44
2017-07-18T09:16:12.916Z,1017.44
2017-07-18T09:17:23.467Z,1017.38
2017-07-18T09:18:33.490Z,1017.39
2017-07-18T09:19:43.816Z,1017.41
2017-07-18T09:20:53.814Z,1017.43
2017-07-18T09:22:04.125Z,1017.41
2017-07-18T09:23:14.370Z,1017.42
2017-07-18T09:24:24.663Z,1017.42
2017-07-18T09:25:34.965Z,1017.44
2017-07-18T09:26:44.991Z,1017.43
2017-07-18T09:27:55.304Z,1017.37
2017-07-18T09:29:05.544Z,1017.38
2017-07-18T09:30:15.852Z,1017.36
2017-07-18T09:31:25.851Z,1017.38
2017-07-18T09:32:36.156Z,1017.43
2017-07-18T09:33:46.452Z,1017.43
2017-07-18T09:34:57.023Z,1017.44
2017-07-18T09:36:07.354Z,1017.36
2017-07-18T09:37:17.674Z,1017.36
2017-07-18T09:38:27.960Z,1017.37
2017-07-18T09:39:38.243Z,1017.28
2017-07-18T09:40:48.802Z,1017.34
2017-07-18T09:41:58.790Z,1017.3
2017-07-18T09:43:09.124Z,1017.33
2017-07-18T09:44:19.412Z,1017.41
2017-07-18T09:45:29.736Z,1017.41
2017-07-18T09:46:40.274Z,1017.37
2017-07-18T09:47:50.265Z,1017.41
2017-07-18T09:49:00.577Z,1017.42
2017-07-18T09:50:10.558Z,1017.38
2017-07-18T09:51:20.543Z,1017.38
2017-07-18T09:52:31.106Z,1017.38
2017-07-18T09:53:41.410Z,1017.43
2017-07-18T09:54:51.297Z,1017.39
2017-07-18T09:56:01.578Z,1017.43
2017-07-18T09:57:11.894Z,1017.39
2017-07-18T09:58:22.447Z,1017.4
2017-07-18T09:59:32.452Z,1017.37
2017-07-18T10:00:42.461Z,1017.43
2017-07-18T10:01:52.461Z,1017.33
2017-07-18T10:03:02.783Z,1017.38
2017-07-18T10:04:13.038Z,1017.42
2017-07-18T10:05:23.044Z,1017.38
2017-07-18T10:06:33.376Z,1017.41
2017-07-18T10:07:43.683Z,1017.41
2017-07-18T10:08:53.690Z,1017.45
2017-07-18T10:10:03.912Z,1017.44
2017-07-18T10:11:14.202Z,1017.36
2017-07-18T10:12:24.500Z,1017.34
2017-07-18T10:13:33.860Z,1017.28
2017-07-18T10:14:44.163Z,1017.25
2017-07-18T10:15:54.710Z,1017.25
2017-07-18T10:17:04.726Z,1017.22
2017-07-18T10:18:15.042Z,1017.21
2017-07-18T10:19:25.333Z,1017.23
2017-07-18T10:20:35.309Z,1017.25
2017-07-18T10:21:45.855Z,1017.3
2017-07-18T10:22:56.149Z,1017.27
2017-07-18T10:24:06.455Z,1017.27
2017-07-18T10:25:15.845Z,1017.2
2017-07-18T10:26:26.140Z,1017.2
2017-07-18T10:27:36.686Z,1017.21
2017-07-18T10:28:46.674Z,1017.19
2017-07-18T10:29:56.054Z,1017.2
2017-07-18T10:31:06.353Z,1017.23
2017-07-18T10:32:16.657Z,1017.22
2017-07-18T10:33:26.934Z,1017.23
2017-07-18T10:34:37.241Z,1017.25
2017-07-18T10:35:47.248Z,1017.29
2017-07-18T10:36:57.549Z,1017.23
2017-07-18T10:38:07.852Z,1017.24
2017-07-18T10:39:18.398Z,1017.22
2017-07-18T10:40:28.730Z,1017.19
2017-07-18T10:41:39.016Z,1017.14
2017-07-18T10:42:49.014Z,1017.1
2017-07-18T10:43:59.318Z,1017.1
2017-07-18T10:45:09.841Z,1017.06
2017-07-18T10:46:19.524Z,1017.04
2017-07-18T10:47:29.843Z,1017.09
2017-07-18T10:48:40.242Z,1017.1
2017-07-18T10:49:50.222Z,1017.08
2017-07-18T10:51:00.445Z,1017.08
2017-07-18T10:52:10.744Z,1017.12
2017-07-18T10:53:21.298Z,1017.09
2017-07-18T10:54:31.608Z,1017.06
2017-07-18T10:55:41.935Z,1017.06
2017-07-18T10:56:52.484Z,1017.05
2017-07-18T10:58:02.509Z,1017
2017-07-18T10:59:12.792Z,1016.97
2017-07-18T11:00:23.094Z,1016.99
2017-07-18T11:01:33.431Z,1017.02
2017-07-18T11:02:43.994Z,1017.03
2017-07-18T11:03:54.299Z,1017.03
2017-07-18T11:05:04.620Z,1017.02
2017-07-18T11:06:14.916Z,1016.99
2017-07-18T11:07:24.914Z,1016.97
2017-07-18T11:08:35.151Z,1016.97
2017-07-18T11:09:45.455Z,1016.96
2017-07-18T11:10:55.451Z,1016.97
2017-07-18T11:12:05.444Z,1016.96
2017-07-18T11:13:15.464Z,1016.92
2017-07-18T11:14:26.017Z,1016.9
2017-07-18T11:15:35.724Z,1016.89
2017-07-18T11:16:46.010Z,1016.88
2017-07-18T11:17:56.312Z,1016.88
2017-07-18T11:19:06.613Z,1016.86
2017-07-18T11:20:17.217Z,1016.86
2017-07-18T11:21:27.537Z,1016.84
2017-07-18T11:22:37.210Z,1016.86
2017-07-18T11:23:47.213Z,1016.86
2017-07-18T11:24:57.204Z,1016.85
2017-07-18T11:26:07.440Z,1016.85
2017-07-18T11:27:17.754Z,1016.87
2017-07-18T11:28:28.088Z,1016.88
2017-07-18T11:29:38.399Z,1016.87
2017-07-18T11:30:48.688Z,1016.84
2017-07-18T11:31:59.233Z,1016.83
2017-07-18T11:33:09.220Z,1016.82
2017-07-18T11:34:19.534Z,1016.82
2017-07-18T11:35:29.539Z,1016.76
2017-07-18T11:36:39.838Z,1016.75
2017-07-18T11:37:50.401Z,1016.79
2017-07-18T11:39:00.695Z,1016.75
2017-07-18T11:40:10.677Z,1016.71
2017-07-18T11:41:21.002Z,1016.73
2017-07-18T11:42:30.990Z,1016.73
2017-07-18T11:43:41.605Z,1016.68
2017-07-18T11:44:51.878Z,1016.7
2017-07-18T11:46:02.182Z,1016.68
2017-07-18T11:47:12.487Z,1016.68
2017-07-18T11:48:22.841Z,1016.7
2017-07-18T11:49:33.202Z,1016.72
2017-07-18T11:50:43.624Z,1016.72
2017-07-18T11:51:53.616Z,1016.71
2017-07-18T11:53:03.912Z,1016.66
2017-07-18T11:54:13.906Z,1016.62
2017-07-18T11:55:24.132Z,1016.64
2017-07-18T11:56:34.425Z,1016.57
2017-07-18T11:57:44.750Z,1016.55
2017-07-18T11:58:55.072Z,1016.53
2017-07-18T12:00:05.381Z,1016.58
2017-07-18T12:01:15.629Z,1016.55
2017-07-18T12:02:25.613Z,1016.55
2017-07-18T12:03:35.629Z,1016.52
2017-07-18T12:04:45.628Z,1016.53
2017-07-18T12:05:55.947Z,1016.47
2017-07-18T12:07:06.190Z,1016.45
2017-07-18T12:08:16.156Z,1016.52
2017-07-18T12:09:26.449Z,1016.53
2017-07-18T12:10:36.745Z,1016.51
2017-07-18T12:11:47.057Z,1016.48
2017-07-18T12:12:57.613Z,1016.5
2017-07-18T12:14:07.898Z,1016.48
2017-07-18T12:15:17.581Z,1016.48
2017-07-18T12:16:27.887Z,1016.44
2017-07-18T12:17:38.201Z,1016.43
2017-07-18T12:18:48.764Z,1016.42
2017-07-18T12:19:58.750Z,1016.38
2017-07-18T12:21:08.762Z,1016.38
2017-07-18T12:22:19.056Z,1016.43
2017-07-18T12:23:29.365Z,1016.44
2017-07-18T12:24:39.618Z,1016.38
2017-07-18T12:25:49.913Z,1016.36
2017-07-18T12:27:00.222Z,1016.37
2017-07-18T12:28:10.212Z,1016.38
2017-07-18T12:29:20.490Z,1016.37
2017-07-18T12:30:31.047Z,1016.34
2017-07-18T12:31:41.353Z,1016.27
2017-07-18T12:32:51.355Z,1016.3
2017-07-18T12:34:01.664Z,1016.33
2017-07-18T12:35:11.651Z,1016.27
2017-07-18T12:36:22.220Z,1016.28
2017-07-18T12:37:32.516Z,1016.26
2017-07-18T12:38:42.493Z,1016.27
2017-07-18T12:39:52.814Z,1016.28
2017-07-18T12:41:03.116Z,1016.22
2017-07-18T12:42:13.375Z,1016.22
2017-07-18T12:43:23.691Z,1016.19
2017-07-18T12:44:34.006Z,1016.21
2017-07-18T12:45:44.301Z,1016.19
2017-07-18T12:46:54.614Z,1016.21
2017-07-18T12:48:05.186Z,1016.25
2017-07-18T12:49:15.485Z,1016.2
2017-07-18T12:50:25.493Z,1016.24
2017-07-18T12:51:35.783Z,1016.2
2017-07-18T12:52:46.079Z,1016.22
2017-07-18T12:53:56.636Z,1016.2
2017-07-18T12:55:06.319Z,1016.18
2017-07-18T12:56:16.283Z,1016.13
2017-07-18T12:57:26.259Z,1016.15
2017-07-18T12:58:36.250Z,1016.21
2017-07-18T12:59:46.802Z,1016.15
2017-07-18T13:00:56.798Z,1016.12
2017-07-18T13:02:07.108Z,1016.16
2017-07-18T13:03:17.121Z,1016.14
2017-07-18T13:04:27.423Z,1016.14
2017-07-18T13:05:38.015Z,1016.08
2017-07-18T13:06:48.330Z,1016.07
2017-07-18T13:07:58.637Z,1016.07
2017-07-18T13:09:08.932Z,1016.04
2017-07-18T13:10:18.619Z,1016.01
2017-07-18T13:11:29.213Z,1016.06
2017-07-18T13:12:39.509Z,1015.99
2017-07-18T13:13:49.491Z,1015.94
2017-07-18T13:14:59.198Z,1015.99
2017-07-18T13:16:09.532Z,1015.97
2017-07-18T13:17:19.818Z,1015.96
2017-07-18T13:18:30.131Z,1015.97
2017-07-18T13:19:40.123Z,1015.94
2017-07-18T13:20:50.431Z,1015.95
2017-07-18T13:22:00.419Z,1015.95
2017-07-18T13:23:10.968Z,1015.93
2017-07-18T13:24:21.259Z,1015.93
2017-07-18T13:25:31.612Z,1015.91
2017-07-18T13:26:41.933Z,1015.91
2017-07-18T13:27:52.266Z,1015.93
2017-07-18T13:29:02.490Z,1015.91
2017-07-18T13:30:12.796Z,1015.86
2017-07-18T13:31:22.798Z,1015.79
2017-07-18T13:32:33.156Z,1015.78
2017-07-18T13:33:43.488Z,1015.79
2017-07-18T13:34:54.036Z,1015.84
2017-07-18T13:36:04.032Z,1015.78
2017-07-18T13:37:14.326Z,1015.77
2017-07-18T13:38:24.334Z,1015.74
2017-07-18T13:39:34.646Z,1015.72
2017-07-18T13:40:45.282Z,1015.69
2017-07-18T13:41:55.592Z,1015.67
2017-07-18T13:43:05.904Z,1015.7
2017-07-18T13:44:16.201Z,1015.7
2017-07-18T13:45:26.516Z,1015.71
2017-07-18T13:46:37.085Z,1015.71
2017-07-18T13:47:47.395Z,1015.7
2017-07-18T13:48:57.427Z,1015.69
2017-07-18T13:50:07.407Z,1015.67
2017-07-18T13:51:17.403Z,1015.71
2017-07-18T13:52:27.942Z,1015.72
2017-07-18T13:53:37.337Z,1015.72
2017-07-18T13:54:47.347Z,1015.7
2017-07-18T13:55:57.646Z,1015.68
2017-07-18T13:57:07.645Z,1015.69
2017-07-18T13:58:18.204Z,1015.66
2017-07-18T13:59:28.246Z,1015.61
2017-07-18T14:00:38.558Z,1015.63
2017-07-18T14:01:48.555Z,1015.68
2017-07-18T14:02:58.861Z,1015.66
2017-07-18T14:04:09.091Z,1015.63
2017-07-18T14:05:19.410Z,1015.61
2017-07-18T14:06:29.406Z,1015.62
2017-07-18T14:07:39.404Z,1015.53
2017-07-18T14:08:49.724Z,1015.52
2017-07-18T14:09:59.974Z,1015.5
2017-07-18T14:11:09.960Z,1015.48